Time;durP1;ratioP1;P1;durP2;ratioP2;P2;SDS_P1;SDS_P2;PMS_P1;PMS_P2;Temp;Humidity;BMP_temperature;BMP_pressure;BME280_temperature;BME280_humidity;BME280_pressure;Samples;Min_cycle;Max_cycle;Signal;HPM_P1;HPM_P2
2023/08/25 00:01:50;;;;;;;343.38;319.30;;;;;;;;;;5002699;28;20024;-58
2023/08/25 00:04:15;;;;;;;371.37;344.23;;;;;;;;;;5009436;28;20501;-58
2023/08/25 00:06:40;;;;;;;360.63;332.83;;;;;;;;;;5000275;28;20026;-58
2023/08/25 00:09:06;;;;;;;349.40;323.43;;;;;;;;;;5001905;28;20021;-58
2023/08/25 00:11:31;;;;;;;365.30;337.63;;;;;;;;;;5010720;28;20032;-58
2023/08/25 00:13:57;;;;;;;371.13;343.10;;;;;;;;;;5010945;28;20018;-58
2023/08/25 00:16:22;;;;;;;367.17;338.83;;;;;;;;;;5003216;28;20061;-58
2023/08/25 00:18:48;;;;;;;433.47;398.40;;;;;;;;;;5006708;28;20045;-58
2023/08/25 00:21:13;;;;;;;442.00;407.17;;;;;;;;;;5009224;28;20060;-58
2023/08/25 00:23:38;;;;;;;404.53;371.67;;;;;;;;;;5008055;28;20117;-58
2023/08/25 00:26:03;;;;;;;362.57;334.57;;;;;;;;;;5008292;28;20072;-58
2023/08/25 00:28:28;;;;;;;376.40;347.50;;;;;;;;;;5009925;28;20022;-58
2023/08/25 00:30:54;;;;;;;354.77;325.43;;;;;;;;;;5007658;28;20494;-58
2023/08/25 00:33:19;;;;;;;;;;;;;;;;;;5009416;28;20081;-58
2023/08/25 00:35:45;;;;;;;329.20;304.83;;;;;;;;;;5002146;28;19909;-57
2023/08/25 00:38:10;;;;;;;351.07;325.67;;;;;;;;;;4997845;28;20053;-57
2023/08/25 00:40:35;;;;;;;382.47;353.70;;;;;;;;;;5008589;28;20033;-58
2023/08/25 00:43:01;;;;;;;359.50;331.40;;;;;;;;;;5010235;28;20104;-58
2023/08/25 00:45:26;;;;;;;406.40;373.87;;;;;;;;;;5008088;28;20018;-58
2023/08/25 00:47:51;;;;;;;;;;;;;;;;;;5010334;28;20428;-57
2023/08/25 00:50:17;;;;;;;329.50;305.67;;;;;;;;;;5008540;28;19913;-57
2023/08/25 00:52:42;;;;;;;325.30;301.13;;;;;;;;;;5002906;28;20022;-58
2023/08/25 00:55:08;;;;;;;373.07;344.37;;;;;;;;;;5009542;28;20021;-58
2023/08/25 00:57:33;;;;;;;342.60;315.33;;;;;;;;;;5007956;28;20026;-57
2023/08/25 00:59:59;;;;;;;339.67;315.20;;;;;;;;;;5007693;28;20026;-57
2023/08/25 01:02:24;;;;;;;322.77;298.97;;;;;;;;;;5000921;28;20026;-57
2023/08/25 01:04:50;;;;;;;320.35;297.23;;;;;;;;;;5006014;28;21018;-58
2023/08/25 01:07:15;;;;;;;;;;;;;;;;;;5010463;28;20478;-58
2023/08/25 01:09:41;;;;;;;294.75;273.60;;;;;;;;;;5009761;28;20312;-62
2023/08/25 01:12:09;;;;;;;;;;;;;;;;;;5007551;28;20068;-58
2023/08/25 01:14:42;;;;;;;278.65;259.65;;;;;;;;;;5003806;28;19913;-57
2023/08/25 01:17:37;;;;;;;334.65;309.58;;;;;;;;;;5012513;28;20025;-57
2023/08/25 01:20:06;;;;;;;335.45;310.75;;;;;;;;;;4998403;28;20025;-58
2023/08/25 01:22:46;;;;;;;360.05;333.27;;;;;;;;;;5005520;28;20140;-58
2023/08/25 01:25:19;;;;;;;333.50;307.38;;;;;;;;;;5008127;28;20041;-58
2023/08/25 01:27:45;;;;;;;334.67;310.52;;;;;;;;;;5008598;28;20215;-57
2023/08/25 01:30:10;;;;;;;358.02;330.92;;;;;;;;;;5010110;28;20225;-58
2023/08/25 01:32:37;;;;;;;386.70;357.35;;;;;;;;;;5006346;28;20389;-58
2023/08/25 01:35:03;;;;;;;358.48;331.70;;;;;;;;;;5009867;28;20026;-58
2023/08/25 01:37:29;;;;;;;358.83;331.38;;;;;;;;;;5008168;28;20044;-59
2023/08/25 01:39:58;;;;;;;355.80;329.00;;;;;;;;;;5006118;28;20025;-58
2023/08/25 01:42:24;;;;;;;412.85;379.25;;;;;;;;;;5003348;28;20058;-58
2023/08/25 01:44:50;;;;;;;361.55;333.50;;;;;;;;;;4999948;28;20519;-58
2023/08/25 01:47:16;;;;;;;395.95;365.27;;;;;;;;;;4999906;28;20112;-58
2023/08/25 01:49:41;;;;;;;382.35;353.52;;;;;;;;;;5010259;28;20028;-58
2023/08/25 01:52:07;;;;;;;400.20;369.90;;;;;;;;;;5009208;28;20092;-59
2023/08/25 01:54:32;;;;;;;;;;;;;;;;;;5003262;28;20026;-58
2023/08/25 01:56:58;;;;;;;325.98;303.30;;;;;;;;;;5005926;28;19975;-58
2023/08/25 01:59:23;;;;;;;385.90;358.20;;;;;;;;;;5011840;28;20022;-58
2023/08/25 02:01:48;;;;;;;350.40;323.30;;;;;;;;;;5007556;28;20026;-57
2023/08/25 02:04:13;;;;;;;373.77;344.13;;;;;;;;;;5003812;28;20386;-57
2023/08/25 02:06:39;;;;;;;346.30;320.08;;;;;;;;;;5009172;28;20018;-58
2023/08/25 02:09:04;;;;;;;340.23;313.10;;;;;;;;;;5012834;28;20014;-58
2023/08/25 02:11:29;;;;;;;381.42;352.48;;;;;;;;;;5003747;28;20018;-58
2023/08/25 02:13:54;;;;;;;393.40;363.40;;;;;;;;;;5008811;28;20585;-59
2023/08/25 02:16:20;;;;;;;329.77;305.20;;;;;;;;;;5006541;28;20040;-57
2023/08/25 02:18:45;;;;;;;401.70;369.60;;;;;;;;;;5011162;28;20025;-58
2023/08/25 02:21:10;;;;;;;418.07;386.10;;;;;;;;;;5008449;28;20076;-58
2023/08/25 02:23:35;;;;;;;426.30;393.52;;;;;;;;;;4999589;28;20011;-58
2023/08/25 02:26:00;;;;;;;377.57;349.50;;;;;;;;;;5009180;28;20030;-58
2023/08/25 02:28:25;;;;;;;352.25;325.58;;;;;;;;;;5002871;28;20037;-58
2023/08/25 02:30:51;;;;;;;370.77;343.33;;;;;;;;;;5008867;28;20030;-59
2023/08/25 02:33:16;;;;;;;414.60;382.17;;;;;;;;;;5010569;28;20485;-58
2023/08/25 02:35:41;;;;;;;334.93;308.43;;;;;;;;;;5004852;28;20042;-59
2023/08/25 02:38:08;;;;;;;362.55;336.95;;;;;;;;;;5003925;28;20034;-59
2023/08/25 02:40:34;;;;;;;364.23;334.83;;;;;;;;;;5011850;28;20022;-58
2023/08/25 02:43:00;;;;;;;357.30;329.30;;;;;;;;;;5008628;28;20068;-58
2023/08/25 02:45:26;;;;;;;329.40;303.48;;;;;;;;;;5007585;28;20044;-58
2023/08/25 02:47:51;;;;;;;293.13;271.27;;;;;;;;;;5006728;28;20028;-59
2023/08/25 02:50:16;;;;;;;365.25;338.38;;;;;;;;;;4997387;28;20512;-58
2023/08/25 02:52:42;;;;;;;344.97;319.20;;;;;;;;;;4996642;28;20021;-59
2023/08/25 02:55:07;;;;;;;;;;;;;;;;;;5008808;28;20525;-59
2023/08/25 02:57:32;;;;;;;304.65;283.48;;;;;;;;;;5009877;28;19929;-58
2023/08/25 02:59:57;;;;;;;305.57;281.60;;;;;;;;;;5002204;28;20366;-59
2023/08/25 03:02:22;;;;;;;;;;;;;;;;;;5009152;28;20044;-59
2023/08/25 03:04:47;;;;;;;303.50;280.83;;;;;;;;;;5009398;28;19910;-59
2023/08/25 03:07:12;;;;;;;331.00;305.93;;;;;;;;;;5002923;28;20610;-59
2023/08/25 03:09:38;;;;;;;338.17;313.57;;;;;;;;;;5005490;28;20540;-59
2023/08/25 03:12:03;;;;;;;342.63;316.20;;;;;;;;;;5009473;28;20472;-59
2023/08/25 03:14:28;;;;;;;;;;;;;;;;;;4999202;28;20032;-58
2023/08/25 03:16:53;;;;;;;324.03;301.00;;;;;;;;;;5001718;28;19928;-59
2023/08/25 03:19:18;;;;;;;;;;;;;;;;;;5012254;28;20132;-58
2023/08/25 03:21:43;;;;;;;339.60;314.73;;;;;;;;;;5011074;28;19976;-58
2023/08/25 03:24:09;;;;;;;313.17;289.10;;;;;;;;;;5002880;28;20030;-58
2023/08/25 03:26:34;;;;;;;391.03;361.80;;;;;;;;;;5008188;28;20026;-59
2023/08/25 03:28:59;;;;;;;374.63;346.27;;;;;;;;;;5009516;28;20021;-58
2023/08/25 03:31:24;;;;;;;344.63;319.33;;;;;;;;;;5004699;28;20096;-57
2023/08/25 03:33:49;;;;;;;361.30;334.83;;;;;;;;;;5006431;28;20112;-58
2023/08/25 03:36:15;;;;;;;381.77;352.37;;;;;;;;;;5011613;28;20030;-58
2023/08/25 03:38:40;;;;;;;;;;;;;;;;;;5011346;28;20060;-57
2023/08/25 03:41:05;;;;;;;323.65;300.63;;;;;;;;;;5004619;28;19909;-57
2023/08/25 03:43:30;;;;;;;355.23;329.73;;;;;;;;;;4993423;28;20045;-57
2023/08/25 03:45:55;;;;;;;;;;;;;;;;;;5002031;28;20032;-57
2023/08/25 03:48:20;;;;;;;337.35;314.05;;;;;;;;;;5008986;28;19909;-57
2023/08/25 03:50:46;;;;;;;352.73;326.57;;;;;;;;;;5011287;28;20397;-57
2023/08/25 03:53:11;;;;;;;342.20;316.15;;;;;;;;;;5005221;28;20405;-57
2023/08/25 03:55:36;;;;;;;365.87;338.77;;;;;;;;;;4997017;28;20080;-57
2023/08/25 03:58:01;;;;;;;;;;;;;;;;;;5008734;28;20022;-57
2023/08/25 04:00:27;;;;;;;341.83;316.83;;;;;;;;;;5007249;28;19913;-57
2023/08/25 04:02:52;;;;;;;357.57;331.07;;;;;;;;;;5011197;28;20026;-58
2023/08/25 04:05:17;;;;;;;410.70;379.60;;;;;;;;;;5009032;28;20024;-58
2023/08/25 04:07:42;;;;;;;;;;;;;;;;;;5001508;28;20022;-58
2023/08/25 04:10:07;;;;;;;369.13;342.13;;;;;;;;;;4994526;28;19909;-57
2023/08/25 04:12:32;;;;;;;376.73;348.92;;;;;;;;;;5006640;28;20109;-58
2023/08/25 04:14:58;;;;;;;411.60;379.37;;;;;;;;;;5010373;28;20049;-59
2023/08/25 04:17:23;;;;;;;400.80;370.10;;;;;;;;;;5003723;28;20046;-58
2023/08/25 04:19:48;;;;;;;385.97;355.73;;;;;;;;;;5010373;28;20353;-57
2023/08/25 04:22:13;;;;;;;377.03;348.20;;;;;;;;;;4998705;28;20028;-59
2023/08/25 04:24:38;;;;;;;356.48;329.42;;;;;;;;;;5001673;28;20452;-59
2023/08/25 04:27:04;;;;;;;358.17;329.53;;;;;;;;;;5004196;28;20068;-59
2023/08/25 04:29:29;;;;;;;347.33;320.73;;;;;;;;;;4995876;28;20029;-60
2023/08/25 04:31:54;;;;;;;366.13;338.47;;;;;;;;;;4994625;28;20443;-58
2023/08/25 04:34:19;;;;;;;377.15;348.35;;;;;;;;;;5008159;28;20029;-59
2023/08/25 04:36:45;;;;;;;357.70;330.63;;;;;;;;;;4997555;28;20038;-58
2023/08/25 04:39:11;;;;;;;353.92;327.23;;;;;;;;;;5004961;28;20465;-59
2023/08/25 04:41:36;;;;;;;396.45;366.92;;;;;;;;;;4994678;28;20034;-58
2023/08/25 04:44:02;;;;;;;393.00;362.17;;;;;;;;;;4992702;28;20449;-58
2023/08/25 04:46:28;;;;;;;387.90;357.40;;;;;;;;;;4990305;28;20072;-59
2023/08/25 04:48:53;;;;;;;399.38;368.70;;;;;;;;;;5009356;28;20034;-59
2023/08/25 04:51:18;;;;;;;385.17;355.40;;;;;;;;;;5007553;28;20396;-60
2023/08/25 04:53:44;;;;;;;388.83;358.77;;;;;;;;;;4999963;28;20393;-59
2023/08/25 04:56:09;;;;;;;385.65;356.08;;;;;;;;;;4992499;28;20022;-60
2023/08/25 04:58:34;;;;;;;376.30;346.73;;;;;;;;;;4993074;28;20042;-59
2023/08/25 05:01:00;;;;;;;335.27;309.88;;;;;;;;;;4998824;28;20133;-59
2023/08/25 05:03:25;;;;;;;442.70;408.00;;;;;;;;;;5006077;28;20030;-57
2023/08/25 05:05:50;;;;;;;392.13;362.10;;;;;;;;;;4995649;28;20579;-59
2023/08/25 05:08:15;;;;;;;396.77;366.77;;;;;;;;;;5001310;28;20026;-58
2023/08/25 05:10:40;;;;;;;;;;;;;;;;;;4992345;28;20183;-59
2023/08/25 05:13:06;;;;;;;335.13;310.58;;;;;;;;;;5004127;28;19916;-58
2023/08/25 05:15:31;;;;;;;379.48;351.58;;;;;;;;;;4999871;28;20041;-59
2023/08/25 05:17:56;;;;;;;404.98;371.67;;;;;;;;;;5001138;28;20034;-60
2023/08/25 05:20:22;;;;;;;393.70;363.57;;;;;;;;;;5005808;28;20392;-59
2023/08/25 05:22:48;;;;;;;452.50;417.33;;;;;;;;;;5001609;28;20018;-60
2023/08/25 05:25:14;;;;;;;451.58;415.67;;;;;;;;;;5005204;28;20025;-59
2023/08/25 05:27:39;;;;;;;;;;;;;;;;;;4995929;28;20418;-59
2023/08/25 05:30:05;;;;;;;329.52;305.50;;;;;;;;;;5005449;28;19909;-60
2023/08/25 05:32:30;;;;;;;;;;;;;;;;;;5009979;28;20014;-59
2023/08/25 05:34:55;;;;;;;360.27;331.70;;;;;;;;;;5013243;28;19909;-59
2023/08/25 05:37:20;;;;;;;344.67;319.07;;;;;;;;;;5013366;28;20040;-60
2023/08/25 05:39:45;;;;;;;390.27;360.40;;;;;;;;;;5014760;28;20025;-60
2023/08/25 05:42:10;;;;;;;409.00;378.33;;;;;;;;;;5011060;28;20021;-59
2023/08/25 05:44:36;;;;;;;;;;;;;;;;;;5007528;28;20022;-60
2023/08/25 05:47:01;;;;;;;348.73;323.93;;;;;;;;;;5013616;28;19917;-59
2023/08/25 05:49:26;;;;;;;;;;;;;;;;;;5002767;28;20032;-60
2023/08/25 05:51:51;;;;;;;401.73;370.35;;;;;;;;;;5018996;28;19909;-59
2023/08/25 05:54:16;;;;;;;373.60;345.03;;;;;;;;;;5003825;28;20116;-59
2023/08/25 05:56:41;;;;;;;;;;;;;;;;;;5005362;28;20063;-58
2023/08/25 05:59:06;;;;;;;319.90;295.48;;;;;;;;;;4996181;28;19933;-59
2023/08/25 06:01:31;;;;;;;;;;;;;;;;;;5020233;28;20017;-59
2023/08/25 06:03:57;;;;;;;390.42;360.83;;;;;;;;;;5012984;28;19910;-59
2023/08/25 06:06:22;;;;;;;359.03;332.07;;;;;;;;;;5011684;28;20025;-59
2023/08/25 06:08:48;;;;;;;;;;;;;;;;;;5009222;28;20017;-60
2023/08/25 06:11:13;;;;;;;382.40;352.90;;;;;;;;;;5000722;28;20327;-59
2023/08/25 06:13:38;;;;;;;;;;;;;;;;;;5010619;28;20103;-59
2023/08/25 06:16:04;;;;;;;353.33;328.05;;;;;;;;;;5000062;28;19914;-59
2023/08/25 06:18:29;;;;;;;;;;;;;;;;;;5012854;28;20109;-59
2023/08/25 06:20:54;;;;;;;349.23;323.77;;;;;;;;;;5001343;28;19909;-59
2023/08/25 06:23:19;;;;;;;411.00;380.03;;;;;;;;;;5005650;28;20485;-59
2023/08/25 06:25:45;;;;;;;442.58;408.17;;;;;;;;;;5008202;28;20022;-59
2023/08/25 06:28:10;;;;;;;;;;;;;;;;;;4996411;28;20018;-59
2023/08/25 06:30:35;;;;;;;375.20;347.73;;;;;;;;;;5007630;28;19918;-59
2023/08/25 06:33:01;;;;;;;;;;;;;;;;;;5014950;28;20049;-59
2023/08/25 06:35:26;;;;;;;353.88;326.73;;;;;;;;;;5006880;28;20387;-60
2023/08/25 06:37:51;;;;;;;;;;;;;;;;;;5021600;28;20080;-59
2023/08/25 06:40:16;;;;;;;406.80;377.20;;;;;;;;;;5010836;28;19989;-59
2023/08/25 06:42:42;;;;;;;475.17;437.60;;;;;;;;;;5009362;28;20052;-59
2023/08/25 06:45:07;;;;;;;;;;;;;;;;;;5010483;28;20493;-59
2023/08/25 06:47:34;;;;;;;455.70;419.23;;;;;;;;;;5005526;28;19948;-59
2023/08/25 06:49:59;;;;;;;413.45;382.15;;;;;;;;;;5004816;28;20021;-59
2023/08/25 06:52:24;;;;;;;;;;;;;;;;;;5002432;28;20030;-58
2023/08/25 06:54:49;;;;;;;427.58;392.65;;;;;;;;;;5005382;28;20015;-59
2023/08/25 06:57:14;;;;;;;;;;;;;;;;;;5008140;28;20029;-57
2023/08/25 06:59:40;;;;;;;416.58;384.60;;;;;;;;;;5001478;28;20425;-57
2023/08/25 07:02:05;;;;;;;;;;;;;;;;;;5014761;28;20469;-59
2023/08/25 07:04:30;;;;;;;398.88;366.98;;;;;;;;;;5016152;28;19916;-57
2023/08/25 07:06:55;;;;;;;448.02;413.98;;;;;;;;;;5004834;28;20048;-58
2023/08/25 07:09:20;;;;;;;;;;;;;;;;;;5005070;28;20108;-57
2023/08/25 07:11:45;;;;;;;386.58;357.75;;;;;;;;;;5005883;28;19909;-58
2023/08/25 07:14:11;;;;;;;;;;;;;;;;;;4994506;28;20026;-58
2023/08/25 07:16:36;;;;;;;413.50;381.35;;;;;;;;;;5006653;28;19986;-57
2023/08/25 07:19:01;;;;;;;;;;;;;;;;;;5007095;28;20019;-57
2023/08/25 07:21:26;;;;;;;378.10;344.70;;;;;;;;;;5011690;28;20005;-58
2023/08/25 07:23:51;;;;;;;449.93;413.37;;;;;;;;;;5011883;28;20022;-58
2023/08/25 07:26:16;;;;;;;;;;;;;;;;;;5001432;28;20033;-57
2023/08/25 07:28:41;;;;;;;354.77;329.17;;;;;;;;;;4992709;28;19956;-57
2023/08/25 07:31:07;;;;;;;;;;;;;;;;;;5005319;28;20022;-57
2023/08/25 07:33:32;;;;;;;377.33;346.27;;;;;;;;;;5004569;28;19921;-57
2023/08/25 07:35:57;;;;;;;;;;;;;;;;;;5019372;28;20025;-59
2023/08/25 07:38:22;;;;;;;385.83;353.77;;;;;;;;;;5015426;28;20414;-57
2023/08/25 07:40:47;;;;;;;455.40;420.13;;;;;;;;;;5001312;28;20073;-57
2023/08/25 07:43:12;;;;;;;;;;;;;;;;;;4993733;28;20033;-58
2023/08/25 07:45:37;;;;;;;413.65;377.73;;;;;;;;;;5006965;28;20496;-58
2023/08/25 07:48:02;;;;;;;;;;;;;;;;;;5017293;28;20022;-57
2023/08/25 07:50:28;;;;;;;418.40;383.05;;;;;;;;;;5007354;28;19932;-58
2023/08/25 07:52:53;;;;;;;;;;;;;;;;;;5003515;28;20019;-57
2023/08/25 07:55:19;;;;;;;384.63;356.80;;;;;;;;;;5002122;28;20381;-58
2023/08/25 07:57:46;;;;;;;;;;;;;;;;;;5003547;28;20029;-58
2023/08/25 08:00:15;;;;;;;372.20;345.08;;;;;;;;;;5009954;28;20424;-58
2023/08/25 08:02:42;;;;;;;379.05;350.23;;;;;;;;;;5006542;28;20108;-58
2023/08/25 08:05:07;;;;;;;461.77;427.02;;;;;;;;;;5003624;28;20488;-58
2023/08/25 08:07:32;;;;;;;;;;;;;;;;;;5007717;28;20041;-58
2023/08/25 08:09:57;;;;;;;489.73;447.25;;;;;;;;;;4996914;28;19918;-58
2023/08/25 08:12:23;;;;;;;489.73;451.00;;;;;;;;;;5016239;28;20449;-58
2023/08/25 08:14:48;;;;;;;556.95;512.28;;;;;;;;;;5003553;28;20076;-58
2023/08/25 08:17:13;;;;;;;455.87;420.27;;;;;;;;;;5020060;28;20454;-57
2023/08/25 08:19:38;;;;;;;524.70;481.47;;;;;;;;;;5003276;28;20029;-58
2023/08/25 08:22:03;;;;;;;;;;;;;;;;;;5012463;28;20014;-58
2023/08/25 08:24:28;;;;;;;449.75;413.98;;;;;;;;;;5006519;28;19916;-59
2023/08/25 08:26:54;;;;;;;;;;;;;;;;;;5006638;28;20079;-58
2023/08/25 08:29:20;;;;;;;373.02;341.15;;;;;;;;;;5010101;28;19909;-58
2023/08/25 08:31:45;;;;;;;435.80;403.95;;;;;;;;;;5009052;28;20022;-58
2023/08/25 08:34:10;;;;;;;430.17;398.43;;;;;;;;;;5012494;28;20029;-58
2023/08/25 08:36:35;;;;;;;;;;;;;;;;;;5002620;28;20034;-58
2023/08/25 08:39:03;;;;;;;417.13;381.25;;;;;;;;;;5008287;28;19909;-57
2023/08/25 08:41:29;;;;;;;475.92;439.88;;;;;;;;;;5003559;28;20026;-57
2023/08/25 08:43:56;;;;;;;567.20;516.92;;;;;;;;;;5009024;28;20381;-58
2023/08/25 08:46:22;;;;;;;460.45;421.05;;;;;;;;;;5009664;28;20026;-59
2023/08/25 08:48:47;;;;;;;513.67;470.20;;;;;;;;;;5011367;28;20226;-58
2023/08/25 08:51:14;;;;;;;482.15;446.23;;;;;;;;;;5008054;28;20029;-58
2023/08/25 08:53:41;;;;;;;456.50;420.77;;;;;;;;;;5004879;28;20037;-58
2023/08/25 08:56:07;;;;;;;461.95;420.90;;;;;;;;;;5002899;28;20485;-59
2023/08/25 08:58:32;;;;;;;460.23;423.85;;;;;;;;;;4995939;28;20069;-57
2023/08/25 09:00:58;;;;;;;533.03;491.43;;;;;;;;;;5002749;28;20014;-58
2023/08/25 09:03:26;;;;;;;553.63;507.05;;;;;;;;;;5010276;28;20552;-57
2023/08/25 09:05:52;;;;;;;471.75;436.55;;;;;;;;;;5005452;28;20026;-56
2023/08/25 09:08:18;;;;;;;493.33;454.17;;;;;;;;;;5000635;28;20523;-58
2023/08/25 09:10:43;;;;;;;475.70;439.73;;;;;;;;;;5001839;28;20160;-58
2023/08/25 09:13:08;;;;;;;491.53;452.43;;;;;;;;;;5004888;28;20539;-57
2023/08/25 09:15:34;;;;;;;489.75;450.90;;;;;;;;;;5002393;28;20097;-57
2023/08/25 09:18:03;;;;;;;480.47;444.20;;;;;;;;;;5017799;28;20053;-57
2023/08/25 09:20:29;;;;;;;441.58;407.75;;;;;;;;;;5007307;28;20033;-57
2023/08/25 09:22:57;;;;;;;481.20;445.52;;;;;;;;;;5013415;28;20033;-57
2023/08/25 09:25:23;;;;;;;458.33;423.05;;;;;;;;;;4999135;28;20113;-57
2023/08/25 09:27:52;;;;;;;466.40;431.80;;;;;;;;;;5004082;28;20089;-58
2023/08/25 09:30:17;;;;;;;513.63;471.27;;;;;;;;;;5002972;28;20025;-59
2023/08/25 09:32:43;;;;;;;482.17;445.63;;;;;;;;;;4995421;28;20101;-58
2023/08/25 09:35:12;;;;;;;502.90;458.83;;;;;;;;;;4999036;28;20033;-58
2023/08/25 09:37:41;;;;;;;466.35;432.10;;;;;;;;;;5006829;28;20083;-60
2023/08/25 09:40:07;;;;;;;488.90;450.65;;;;;;;;;;5021354;28;20060;-59
2023/08/25 09:42:32;;;;;;;456.20;422.20;;;;;;;;;;5002863;28;20104;-58
2023/08/25 09:45:00;;;;;;;461.50;425.57;;;;;;;;;;4995328;28;20480;-58
2023/08/25 09:47:26;;;;;;;458.48;424.92;;;;;;;;;;5000465;28;20041;-57
2023/08/25 09:49:51;;;;;;;514.00;474.60;;;;;;;;;;5010734;28;20034;-57
2023/08/25 09:52:18;;;;;;;459.75;423.27;;;;;;;;;;5008638;28;20611;-57
2023/08/25 09:54:43;;;;;;;496.98;458.85;;;;;;;;;;5002218;28;20018;-57
2023/08/25 09:57:08;;;;;;;485.63;447.83;;;;;;;;;;5007876;28;20423;-59
2023/08/25 09:59:34;;;;;;;410.30;378.20;;;;;;;;;;5001597;28;20516;-59
2023/08/25 10:01:59;;;;;;;412.90;380.07;;;;;;;;;;5012120;28;20401;-58
2023/08/25 10:04:24;;;;;;;495.00;455.23;;;;;;;;;;4991953;28;20031;-59
2023/08/25 10:06:50;;;;;;;494.47;456.47;;;;;;;;;;5011439;28;20026;-59
2023/08/25 10:09:15;;;;;;;475.40;438.97;;;;;;;;;;5001134;28;20033;-57
2023/08/25 10:11:43;;;;;;;480.20;435.10;;;;;;;;;;5003545;28;20022;-58
2023/08/25 10:14:10;;;;;;;541.60;491.80;;;;;;;;;;5007239;28;20026;-59
2023/08/25 10:16:41;;;;;;;551.25;496.95;;;;;;;;;;5000465;28;20018;-56
2023/08/25 10:19:10;;;;;;;483.40;443.50;;;;;;;;;;5002158;28;20029;-57
2023/08/25 10:21:35;;;;;;;482.35;442.40;;;;;;;;;;5002127;28;20014;-57
2023/08/25 10:24:00;;;;;;;448.80;416.27;;;;;;;;;;5008219;28;20032;-57
2023/08/25 10:26:26;;;;;;;501.53;461.07;;;;;;;;;;5007665;28;20013;-57
2023/08/25 10:28:51;;;;;;;447.70;413.48;;;;;;;;;;5018476;28;20515;-57
2023/08/25 10:31:16;;;;;;;474.83;439.48;;;;;;;;;;5004229;28;20026;-58
2023/08/25 10:33:45;;;;;;;468.27;426.10;;;;;;;;;;5010592;28;20018;-57
2023/08/25 10:36:14;;;;;;;598.47;533.33;;;;;;;;;;5010810;28;20018;-57
2023/08/25 10:38:39;;;;;;;470.65;427.58;;;;;;;;;;5005233;28;20041;-57
2023/08/25 10:41:15;;;;;;;441.55;407.23;;;;;;;;;;5016030;28;20045;-57
2023/08/25 10:43:40;;;;;;;480.05;440.77;;;;;;;;;;5007548;28;20022;-57
2023/08/25 10:46:06;;;;;;;467.15;426.02;;;;;;;;;;5003212;28;20014;-58
2023/08/25 10:48:31;;;;;;;462.38;423.42;;;;;;;;;;5002501;28;20374;-58
2023/08/25 10:51:08;;;;;;;475.17;434.57;;;;;;;;;;5002259;28;20474;-57
2023/08/25 10:53:44;;;;;;;433.05;399.77;;;;;;;;;;5011123;28;20037;-57
2023/08/25 10:56:16;;;;;;;448.75;414.45;;;;;;;;;;5015694;28;20014;-57
2023/08/25 10:58:41;;;;;;;;;;;;;;;;;;5007768;28;20021;-58
2023/08/25 11:01:07;;;;;;;396.27;365.15;;;;;;;;;;5010266;28;19921;-58
2023/08/25 11:03:45;;;;;;;477.93;436.97;;;;;;;;;;5017933;28;20097;-57
2023/08/25 11:06:30;;;;;;;462.17;420.08;;;;;;;;;;5012725;28;20052;-57
2023/08/25 11:08:55;;;;;;;462.65;425.45;;;;;;;;;;5007516;28;20026;-57
2023/08/25 11:11:21;;;;;;;440.98;407.85;;;;;;;;;;5010556;28;20026;-56
2023/08/25 11:13:46;;;;;;;434.15;393.88;;;;;;;;;;5013792;28;20050;-57
2023/08/25 11:16:12;;;;;;;556.83;479.52;;;;;;;;;;5011636;28;20421;-57
2023/08/25 11:18:41;;;;;;;455.38;417.05;;;;;;;;;;5011687;28;20022;-58
2023/08/25 11:21:07;;;;;;;435.95;399.67;;;;;;;;;;5012491;28;20014;-57
2023/08/25 11:23:36;;;;;;;400.50;364.80;;;;;;;;;;5015000;28;20595;-58
2023/08/25 11:26:01;;;;;;;512.78;463.38;;;;;;;;;;5012036;28;20963;-57
2023/08/25 11:28:26;;;;;;;447.43;406.63;;;;;;;;;;5018561;28;20097;-57
2023/08/25 11:30:51;;;;;;;450.97;409.77;;;;;;;;;;5018445;28;20034;-58
2023/08/25 11:33:20;;;;;;;432.10;397.20;;;;;;;;;;5011767;28;20037;-57
2023/08/25 11:35:45;;;;;;;482.55;441.35;;;;;;;;;;5003852;28;20424;-58
2023/08/25 11:38:12;;;;;;;412.93;380.43;;;;;;;;;;5013815;28;20082;-57
2023/08/25 11:40:38;;;;;;;444.20;404.73;;;;;;;;;;5005033;28;20030;-60
2023/08/25 11:43:03;;;;;;;545.40;490.25;;;;;;;;;;4998483;28;20022;-57
2023/08/25 11:45:29;;;;;;;480.10;440.80;;;;;;;;;;5015087;28;20121;-58
2023/08/25 11:47:54;;;;;;;466.85;424.00;;;;;;;;;;5015771;28;20933;-58
2023/08/25 11:50:19;;;;;;;519.03;470.73;;;;;;;;;;5012988;28;20396;-57
2023/08/25 11:52:45;;;;;;;448.10;411.07;;;;;;;;;;5012419;28;20496;-57
2023/08/25 11:55:13;;;;;;;471.13;430.60;;;;;;;;;;5011367;28;20014;-58
2023/08/25 11:57:38;;;;;;;456.42;413.92;;;;;;;;;;5009236;28;20400;-58
2023/08/25 12:00:05;;;;;;;447.10;406.77;;;;;;;;;;5006308;28;20117;-57
2023/08/25 12:02:30;;;;;;;447.30;413.40;;;;;;;;;;5009609;28;20020;-58
2023/08/25 12:04:56;;;;;;;436.03;399.80;;;;;;;;;;5017194;28;20017;-57
2023/08/25 12:07:22;;;;;;;455.70;416.92;;;;;;;;;;5010127;28;20034;-58
2023/08/25 12:09:52;;;;;;;439.55;404.50;;;;;;;;;;5011699;28;20117;-57
2023/08/25 12:12:17;;;;;;;493.52;454.67;;;;;;;;;;5011539;28;21010;-57
2023/08/25 12:14:42;;;;;;;467.03;432.40;;;;;;;;;;5011556;28;20101;-57
2023/08/25 12:17:07;;;;;;;483.27;445.43;;;;;;;;;;5010545;28;20033;-57
2023/08/25 12:19:32;;;;;;;633.13;579.53;;;;;;;;;;5004702;28;20018;-59
2023/08/25 12:22:02;;;;;;;625.05;573.38;;;;;;;;;;5012621;28;20432;-58
2023/08/25 12:24:27;;;;;;;564.80;518.58;;;;;;;;;;5010428;28;20014;-58
2023/08/25 12:26:52;;;;;;;554.57;502.20;;;;;;;;;;5009179;28;20543;-58
2023/08/25 12:29:19;;;;;;;558.03;510.77;;;;;;;;;;5008220;28;20136;-58
2023/08/25 12:31:44;;;;;;;525.85;481.10;;;;;;;;;;5004604;28;20068;-61
2023/08/25 12:34:09;;;;;;;;;;;;;;;;;;5006655;28;20042;-57
2023/08/25 12:36:35;;;;;;;480.90;441.10;;;;;;;;;;5009335;28;19921;-57
2023/08/25 12:39:00;;;;;;;;;;;;;;;;;;5009114;28;20022;-59
2023/08/25 12:41:25;;;;;;;474.65;437.23;;;;;;;;;;5015720;28;19925;-58
2023/08/25 12:43:50;;;;;;;;;;;;;;;;;;5015785;28;20028;-57
2023/08/25 12:46:16;;;;;;;494.85;454.10;;;;;;;;;;5016800;28;20005;-57
2023/08/25 12:48:41;;;;;;;;;;;;;;;;;;5015054;28;20021;-57
2023/08/25 12:51:06;;;;;;;432.05;399.17;;;;;;;;;;5008757;28;19909;-59
2023/08/25 12:53:31;;;;;;;;;;;;;;;;;;5018006;28;20049;-58
2023/08/25 12:55:56;;;;;;;469.85;430.38;;;;;;;;;;5008171;28;19951;-57
2023/08/25 12:58:21;;;;;;;;;;;;;;;;;;5009131;28;20517;-57
2023/08/25 13:00:47;;;;;;;524.60;483.20;;;;;;;;;;5014364;28;19920;-57
2023/08/25 13:03:12;;;;;;;456.57;420.90;;;;;;;;;;5013557;28;20108;-59
2023/08/25 13:05:37;;;;;;;472.98;435.20;;;;;;;;;;5006042;28;20029;-59
2023/08/25 13:08:03;;;;;;;;;;;;;;;;;;5010004;28;20104;-58
2023/08/25 13:10:28;;;;;;;441.50;408.65;;;;;;;;;;5007907;28;19918;-57
2023/08/25 13:12:53;;;;;;;;;;;;;;;;;;5010599;28;20028;-58
2023/08/25 13:15:19;;;;;;;399.30;368.42;;;;;;;;;;5010677;28;19909;-59
2023/08/25 13:17:48;;;;;;;;;;;;;;;;;;5007706;28;20061;-58
2023/08/25 13:20:13;;;;;;;481.13;435.20;;;;;;;;;;5009533;28;20002;-58
2023/08/25 13:22:39;;;;;;;;;;;;;;;;;;5011250;28;20054;-59
2023/08/25 13:25:04;;;;;;;452.58;414.73;;;;;;;;;;5010638;28;19912;-58
2023/08/25 13:27:29;;;;;;;;;;;;;;;;;;5009625;28;20047;-59
2023/08/25 13:29:55;;;;;;;510.83;463.50;;;;;;;;;;5009790;28;19967;-59
2023/08/25 13:32:20;;;;;;;;;;;;;;;;;;5009007;28;20022;-57
2023/08/25 13:34:45;;;;;;;498.58;455.00;;;;;;;;;;5012708;28;19952;-58
2023/08/25 13:37:10;;;;;;;;;;;;;;;;;;5006333;28;20074;-59
2023/08/25 13:39:38;;;;;;;473.95;437.83;;;;;;;;;;5016221;28;20308;-59
2023/08/25 13:42:04;;;;;;;481.63;443.27;;;;;;;;;;5011217;28;20095;-58
2023/08/25 13:44:29;;;;;;;;;;;;;;;;;;5016447;28;20489;-58
2023/08/25 13:46:54;;;;;;;411.88;380.48;;;;;;;;;;5014219;28;19909;-59
2023/08/25 13:49:19;;;;;;;;;;;;;;;;;;5012979;28;20506;-58
2023/08/25 13:51:44;;;;;;;442.67;405.73;;;;;;;;;;5012509;28;20380;-59
2023/08/25 13:54:10;;;;;;;496.00;454.23;;;;;;;;;;5013042;28;20030;-58
2023/08/25 13:56:35;;;;;;;505.90;464.40;;;;;;;;;;5009631;28;20030;-58
2023/08/25 13:59:00;;;;;;;;;;;;;;;;;;5020751;28;20022;-59
2023/08/25 14:01:25;;;;;;;419.55;381.55;;;;;;;;;;5008665;28;20376;-59
2023/08/25 14:03:50;;;;;;;435.13;399.77;;;;;;;;;;5008626;28;20030;-59
2023/08/25 14:06:15;;;;;;;469.43;433.47;;;;;;;;;;5004788;28;20700;-59
2023/08/25 14:08:41;;;;;;;510.20;471.13;;;;;;;;;;4998908;28;20033;-59
2023/08/25 14:11:06;;;;;;;442.58;403.95;;;;;;;;;;5013938;28;20022;-58